Mannboro, Virginia
Current Conditions -  °F | °C
As of 4:35 AM on Sunday 26 Oct 2014 (Local Time) from KBKT Reporting Station
Clear Clear  
Wind Chill: 53°   Ceiling: Unl
Heat Index: 53°   Visibility: 10mi
Dew Point: 47°   Wind: 5mph
Humidity: 82%   Direction: 230°SW
Pressure: 29.76"   Gusts: NA
Location:  37.25°N, 77.82°W
Report Text: KBKT 260835Z AUTO 23004KT 10SM CLR 11/09 A2976 RMK AO1 T01140085
Loading
Personal Weather Stations






























Interactive Weather Map
Tropical Storm Tracking
New forecast layout! Learn more

10-Day Weather Forecast

Advertisements
Track Severe Weather on mobile